sensor_id;sensor_type;location;lat;lon;timestamp;pressure;altitude;pressure_sealevel;temperature;humidity
17260;BME280;8746;49.230;9.220;2022-09-09T00:04:34;99579.53;;;14.49;86.65
17260;BME280;8746;49.230;9.220;2022-09-09T00:09:39;99570.41;;;14.38;86.36
17260;BME280;8746;49.230;9.220;2022-09-09T00:12:13;99575.81;;;14.37;86.70
17260;BME280;8746;49.230;9.220;2022-09-09T00:17:12;99579.03;;;14.42;86.26
17260;BME280;8746;49.230;9.220;2022-09-09T00:19:53;99578.19;;;14.41;86.14
17260;BME280;8746;49.230;9.220;2022-09-09T00:22:23;99569.56;;;14.38;86.47
17260;BME280;8746;49.230;9.220;2022-09-09T00:24:55;99554.69;;;14.35;86.50
17260;BME280;8746;49.230;9.220;2022-09-09T00:27:46;99554.88;;;14.32;85.93
17260;BME280;8746;49.230;9.220;2022-09-09T00:32:49;99552.59;;;14.26;86.54
17260;BME280;8746;49.230;9.220;2022-09-09T00:35:25;99554.59;;;14.37;86.16
17260;BME280;8746;49.230;9.220;2022-09-09T00:37:53;99560.66;;;14.39;85.92
17260;BME280;8746;49.230;9.220;2022-09-09T00:40:29;99562.16;;;14.43;85.60
17260;BME280;8746;49.230;9.220;2022-09-09T00:43:21;99561.78;;;14.49;85.32
17260;BME280;8746;49.230;9.220;2022-09-09T00:46:19;99567.88;;;14.51;85.21
17260;BME280;8746;49.230;9.220;2022-09-09T00:49:17;99571.56;;;14.49;85.36
17260;BME280;8746;49.230;9.220;2022-09-09T00:55:03;99575.88;;;14.64;85.26
17260;BME280;8746;49.230;9.220;2022-09-09T00:57:32;99575.16;;;14.48;86.19
17260;BME280;8746;49.230;9.220;2022-09-09T01:00:24;99575.25;;;14.46;86.27
17260;BME280;8746;49.230;9.220;2022-09-09T01:05:54;99583.78;;;14.51;85.80
17260;BME280;8746;49.230;9.220;2022-09-09T01:14:27;99582.47;;;14.58;85.11
17260;BME280;8746;49.230;9.220;2022-09-09T01:16:59;99584.06;;;14.61;85.68
17260;BME280;8746;49.230;9.220;2022-09-09T01:22:19;99579.41;;;14.50;87.06
17260;BME280;8746;49.230;9.220;2022-09-09T01:27:21;99566.53;;;14.30;87.70
17260;BME280;8746;49.230;9.220;2022-09-09T01:29:48;99573.94;;;14.24;87.90
17260;BME280;8746;49.230;9.220;2022-09-09T01:33:07;99570.13;;;14.29;88.00
17260;BME280;8746;49.230;9.220;2022-09-09T01:37:56;99581.50;;;14.16;88.70
17260;BME280;8746;49.230;9.220;2022-09-09T01:40:23;99575.81;;;14.22;88.81
17260;BME280;8746;49.230;9.220;2022-09-09T01:42:49;99574.88;;;14.23;88.59
17260;BME280;8746;49.230;9.220;2022-09-09T01:45:14;99581.13;;;14.22;88.81
17260;BME280;8746;49.230;9.220;2022-09-09T01:47:40;99564.81;;;14.29;88.08
17260;BME280;8746;49.230;9.220;2022-09-09T01:50:08;99573.34;;;14.34;88.46
17260;BME280;8746;49.230;9.220;2022-09-09T01:52:37;99575.25;;;14.32;87.52
17260;BME280;8746;49.230;9.220;2022-09-09T01:55:03;99578.66;;;14.34;87.61
17260;BME280;8746;49.230;9.220;2022-09-09T01:57:33;99577.25;;;14.42;87.23
17260;BME280;8746;49.230;9.220;2022-09-09T02:00:04;99579.97;;;14.41;88.04
17260;BME280;8746;49.230;9.220;2022-09-09T02:07:40;99578.09;;;14.43;87.02
17260;BME280;8746;49.230;9.220;2022-09-09T02:10:33;99570.91;;;14.45;86.70
17260;BME280;8746;49.230;9.220;2022-09-09T02:13:10;99570.91;;;14.45;86.62
17260;BME280;8746;49.230;9.220;2022-09-09T02:16:00;99570.91;;;14.45;86.58
17260;BME280;8746;49.230;9.220;2022-09-09T02:18:44;99568.41;;;14.56;86.90
17260;BME280;8746;49.230;9.220;2022-09-09T02:21:12;99579.81;;;14.44;88.15
17260;BME280;8746;49.230;9.220;2022-09-09T02:23:41;99572.50;;;14.48;87.67
17260;BME280;8746;49.230;9.220;2022-09-09T02:26:09;99584.91;;;14.47;87.96
17260;BME280;8746;49.230;9.220;2022-09-09T02:28:37;99573.28;;;14.50;87.93
17260;BME280;8746;49.230;9.220;2022-09-09T02:31:05;99577.72;;;14.49;87.84
17260;BME280;8746;49.230;9.220;2022-09-09T02:33:37;99576.38;;;14.42;88.02
17260;BME280;8746;49.230;9.220;2022-09-09T02:36:06;99577.03;;;14.46;88.22
17260;BME280;8746;49.230;9.220;2022-09-09T02:38:37;99570.34;;;14.25;89.13
17260;BME280;8746;49.230;9.220;2022-09-09T02:41:06;99556.03;;;14.14;90.84
17260;BME280;8746;49.230;9.220;2022-09-09T02:43:32;99559.63;;;14.27;91.32
17260;BME280;8746;49.230;9.220;2022-09-09T02:48:51;99565.09;;;14.24;91.75
17260;BME280;8746;49.230;9.220;2022-09-09T02:51:38;99561.63;;;14.23;92.08
17260;BME280;8746;49.230;9.220;2022-09-09T02:54:20;99566.75;;;14.26;91.83
17260;BME280;8746;49.230;9.220;2022-09-09T02:56:51;99561.22;;;14.30;91.63
17260;BME280;8746;49.230;9.220;2022-09-09T02:59:20;99548.44;;;14.22;91.84
17260;BME280;8746;49.230;9.220;2022-09-09T03:01:46;99540.09;;;14.14;92.01
17260;BME280;8746;49.230;9.220;2022-09-09T03:04:12;99554.31;;;14.13;93.10
17260;BME280;8746;49.230;9.220;2022-09-09T03:06:37;99556.28;;;14.09;92.95
17260;BME280;8746;49.230;9.220;2022-09-09T03:09:03;99567.66;;;14.11;93.31
17260;BME280;8746;49.230;9.220;2022-09-09T03:11:28;99561.19;;;14.01;92.97
17260;BME280;8746;49.230;9.220;2022-09-09T03:13:54;99562.25;;;13.98;92.98
17260;BME280;8746;49.230;9.220;2022-09-09T03:16:21;99555.91;;;14.01;93.57
17260;BME280;8746;49.230;9.220;2022-09-09T03:18:47;99555.06;;;14.00;93.56
17260;BME280;8746;49.230;9.220;2022-09-09T03:21:12;99555.91;;;14.01;93.00
17260;BME280;8746;49.230;9.220;2022-09-09T03:23:38;99552.25;;;14.03;92.79
17260;BME280;8746;49.230;9.220;2022-09-09T03:26:04;99550.59;;;14.01;92.96
17260;BME280;8746;49.230;9.220;2022-09-09T03:28:29;99543.22;;;14.06;93.51
17260;BME280;8746;49.230;9.220;2022-09-09T03:31:01;99555.06;;;14.00;92.94
17260;BME280;8746;49.230;9.220;2022-09-09T03:33:27;99554.00;;;14.03;93.18
17260;BME280;8746;49.230;9.220;2022-09-09T03:35:53;99562.47;;;14.09;93.21
17260;BME280;8746;49.230;9.220;2022-09-09T03:38:22;99550.22;;;14.21;92.61
17260;BME280;8746;49.230;9.220;2022-09-09T03:40:55;99548.16;;;14.12;92.26
17260;BME280;8746;49.230;9.220;2022-09-09T03:43:23;99551.75;;;14.11;92.82
17260;BME280;8746;49.230;9.220;2022-09-09T03:45:48;99546.63;;;14.08;92.39
17260;BME280;8746;49.230;9.220;2022-09-09T03:48:15;99543.22;;;14.06;92.88
17260;BME280;8746;49.230;9.220;2022-09-09T03:50:50;99547.94;;;14.01;92.82
17260;BME280;8746;49.230;9.220;2022-09-09T03:53:18;99550.97;;;13.94;93.17
17260;BME280;8746;49.230;9.220;2022-09-09T03:55:49;99543.97;;;13.93;93.40
17260;BME280;8746;49.230;9.220;2022-09-09T03:58:16;99543.97;;;13.93;93.20
17260;BME280;8746;49.230;9.220;2022-09-09T04:00:52;99552.69;;;13.95;93.04
17260;BME280;8746;49.230;9.220;2022-09-09T04:03:18;99550.31;;;13.91;93.10
17260;BME280;8746;49.230;9.220;2022-09-09T04:05:44;99544.25;;;13.89;93.34
17260;BME280;8746;49.230;9.220;2022-09-09T04:08:09;99546.34;;;13.98;93.58
17260;BME280;8746;49.230;9.220;2022-09-09T04:10:35;99547.00;;;14.02;93.16
17260;BME280;8746;49.230;9.220;2022-09-09T04:13:04;99555.56;;;14.07;93.85
17260;BME280;8746;49.230;9.220;2022-09-09T04:15:30;99564.75;;;14.16;93.59
17260;BME280;8746;49.230;9.220;2022-09-09T04:17:56;99573.25;;;14.21;93.38
17260;BME280;8746;49.230;9.220;2022-09-09T04:20:21;99566.91;;;14.23;92.86
17260;BME280;8746;49.230;9.220;2022-09-09T04:22:47;99573.00;;;14.25;92.92
17260;BME280;8746;49.230;9.220;2022-09-09T04:25:13;99572.78;;;14.29;92.47
17260;BME280;8746;49.230;9.220;2022-09-09T04:27:38;99579.41;;;14.21;93.08
17260;BME280;8746;49.230;9.220;2022-09-09T04:30:04;99575.16;;;14.19;93.13
17260;BME280;8746;49.230;9.220;2022-09-09T04:32:32;99579.78;;;14.15;92.79
17260;BME280;8746;49.230;9.220;2022-09-09T04:34:57;99575.44;;;14.14;93.19
17260;BME280;8746;49.230;9.220;2022-09-09T04:37:23;99577.72;;;14.06;93.35
17260;BME280;8746;49.230;9.220;2022-09-09T04:39:49;99579.69;;;14.02;93.38
17260;BME280;8746;49.230;9.220;2022-09-09T04:42:15;99572.19;;;13.94;93.88
17260;BME280;8746;49.230;9.220;2022-09-09T04:44:41;99574.19;;;14.05;93.75
17260;BME280;8746;49.230;9.220;2022-09-09T04:47:06;99582.25;;;14.04;94.00
17260;BME280;8746;49.230;9.220;2022-09-09T04:49:32;99577.78;;;14.04;93.81
17260;BME280;8746;49.230;9.220;2022-09-09T04:51:57;99590.78;;;14.09;93.57
17260;BME280;8746;49.230;9.220;2022-09-09T04:54:22;99588.91;;;14.11;93.20
17260;BME280;8746;49.230;9.220;2022-09-09T04:56:50;99596.66;;;14.14;93.16
17260;BME280;8746;49.230;9.220;2022-09-09T04:59:15;99590.03;;;14.07;93.25
17260;BME280;8746;49.230;9.220;2022-09-09T05:01:41;99599.59;;;14.09;93.30
17260;BME280;8746;49.230;9.220;2022-09-09T05:04:06;99594.66;;;14.18;93.06
17260;BME280;8746;49.230;9.220;2022-09-09T05:06:32;99601.94;;;14.14;93.10
17260;BME280;8746;49.230;9.220;2022-09-09T05:08:57;99607.25;;;14.14;93.19
17260;BME280;8746;49.230;9.220;2022-09-09T05:11:28;99609.91;;;14.14;93.50
17260;BME280;8746;49.230;9.220;2022-09-09T05:13:54;99607.84;;;14.19;93.29
17260;BME280;8746;49.230;9.220;2022-09-09T05:16:20;99606.16;;;14.18;93.03
17260;BME280;8746;49.230;9.220;2022-09-09T05:18:46;99611.06;;;14.24;92.90
17260;BME280;8746;49.230;9.220;2022-09-09T05:21:13;99611.66;;;14.30;92.88
17260;BME280;8746;49.230;9.220;2022-09-09T05:23:39;99617.50;;;14.35;92.62
17260;BME280;8746;49.230;9.220;2022-09-09T05:26:06;99615.63;;;14.37;92.75
17260;BME280;8746;49.230;9.220;2022-09-09T05:28:34;99615.81;;;14.34;92.68
17260;BME280;8746;49.230;9.220;2022-09-09T05:31:03;99616.94;;;14.30;93.12
17260;BME280;8746;49.230;9.220;2022-09-09T05:33:33;99618.00;;;14.27;93.19
17260;BME280;8746;49.230;9.220;2022-09-09T05:36:03;99623.03;;;14.32;93.23
17260;BME280;8746;49.230;9.220;2022-09-09T05:38:30;99623.13;;;14.30;93.20
17260;BME280;8746;49.230;9.220;2022-09-09T05:40:56;99628.91;;;14.37;92.91
17260;BME280;8746;49.230;9.220;2022-09-09T05:43:22;99631.72;;;14.34;92.97
17260;BME280;8746;49.230;9.220;2022-09-09T05:45:59;99632.69;;;14.33;93.07
17260;BME280;8746;49.230;9.220;2022-09-09T05:48:28;99632.69;;;14.47;92.80
17260;BME280;8746;49.230;9.220;2022-09-09T05:50:54;99634.97;;;14.39;92.80
17260;BME280;8746;49.230;9.220;2022-09-09T05:53:20;99639.44;;;14.53;92.74
17260;BME280;8746;49.230;9.220;2022-09-09T05:55:45;99639.31;;;14.54;92.52
17260;BME280;8746;49.230;9.220;2022-09-09T05:58:11;99635.56;;;14.58;92.28
17260;BME280;8746;49.230;9.220;2022-09-09T06:00:36;99637.66;;;14.68;92.17
17260;BME280;8746;49.230;9.220;2022-09-09T06:03:03;99626.06;;;14.83;92.17
17260;BME280;8746;49.230;9.220;2022-09-09T06:05:29;99636.88;;;14.95;91.56
17260;BME280;8746;49.230;9.220;2022-09-09T06:07:54;99626.09;;;15.11;91.21
17260;BME280;8746;49.230;9.220;2022-09-09T06:10:20;99627.69;;;15.28;90.39
17260;BME280;8746;49.230;9.220;2022-09-09T06:12:45;99627.75;;;15.41;89.67
17260;BME280;8746;49.230;9.220;2022-09-09T06:15:10;99629.06;;;15.48;89.56
17260;BME280;8746;49.230;9.220;2022-09-09T06:17:36;99627.19;;;15.63;89.56
17260;BME280;8746;49.230;9.220;2022-09-09T06:20:02;99624.53;;;15.76;88.75
17260;BME280;8746;49.230;9.220;2022-09-09T06:22:27;99622.75;;;15.76;88.88
17260;BME280;8746;49.230;9.220;2022-09-09T06:24:53;99624.22;;;15.80;88.77
17260;BME280;8746;49.230;9.220;2022-09-09T06:27:18;99621.75;;;15.92;88.35
17260;BME280;8746;49.230;9.220;2022-09-09T06:29:44;99618.34;;;15.90;85.46
17260;BME280;8746;49.230;9.220;2022-09-09T06:32:09;99619.75;;;16.08;86.61
17260;BME280;8746;49.230;9.220;2022-09-09T06:34:34;99627.19;;;16.03;86.88
17260;BME280;8746;49.230;9.220;2022-09-09T06:37:01;99630.69;;;15.91;87.94
17260;BME280;8746;49.230;9.220;2022-09-09T06:39:26;99636.88;;;16.04;88.02
17260;BME280;8746;49.230;9.220;2022-09-09T06:41:52;99633.88;;;15.96;85.91
17260;BME280;8746;49.230;9.220;2022-09-09T06:44:19;99627.31;;;16.14;86.18
17260;BME280;8746;49.230;9.220;2022-09-09T06:46:44;99628.69;;;16.33;85.67
17260;BME280;8746;49.230;9.220;2022-09-09T06:49:12;99628.69;;;16.46;83.80
17260;BME280;8746;49.230;9.220;2022-09-09T06:51:38;99632.63;;;16.53;83.32
17260;BME280;8746;49.230;9.220;2022-09-09T06:54:08;99639.88;;;16.64;81.58
17260;BME280;8746;49.230;9.220;2022-09-09T06:56:35;99633.69;;;16.76;79.60
17260;BME280;8746;49.230;9.220;2022-09-09T06:59:04;99639.19;;;16.86;79.19
17260;BME280;8746;49.230;9.220;2022-09-09T07:01:41;99635.56;;;17.00;77.85
17260;BME280;8746;49.230;9.220;2022-09-09T07:04:07;99631.09;;;17.01;76.87
17260;BME280;8746;49.230;9.220;2022-09-09T07:06:40;99636.38;;;17.13;75.84
17260;BME280;8746;49.230;9.220;2022-09-09T07:09:10;99629.25;;;17.14;76.36
17260;BME280;8746;49.230;9.220;2022-09-09T07:11:44;99629.78;;;17.06;74.70
17260;BME280;8746;49.230;9.220;2022-09-09T07:14:10;99633.38;;;17.18;73.67
17260;BME280;8746;49.230;9.220;2022-09-09T07:16:39;99618.81;;;17.35;73.42
17260;BME280;8746;49.230;9.220;2022-09-09T07:19:05;99632.53;;;17.42;72.53
17260;BME280;8746;49.230;9.220;2022-09-09T07:21:31;99631.53;;;17.56;71.72
17260;BME280;8746;49.230;9.220;2022-09-09T07:23:58;99635.66;;;17.60;72.53
17260;BME280;8746;49.230;9.220;2022-09-09T07:26:26;99635.66;;;17.60;71.04
17260;BME280;8746;49.230;9.220;2022-09-09T07:28:52;99629.88;;;17.66;71.64
17260;BME280;8746;49.230;9.220;2022-09-09T07:31:21;99630.97;;;17.75;70.81
17260;BME280;8746;49.230;9.220;2022-09-09T07:33:47;99633.44;;;17.78;70.68
17260;BME280;8746;49.230;9.220;2022-09-09T07:36:15;99629.69;;;17.81;70.37
17260;BME280;8746;49.230;9.220;2022-09-09T07:38:52;99648.63;;;17.89;69.65
17260;BME280;8746;49.230;9.220;2022-09-09T07:41:33;99650.19;;;17.80;69.53
17260;BME280;8746;49.230;9.220;2022-09-09T07:43:59;99650.81;;;17.84;69.36
17260;BME280;8746;49.230;9.220;2022-09-09T07:46:28;99651.50;;;17.74;69.80
17260;BME280;8746;49.230;9.220;2022-09-09T07:48:55;99654.53;;;17.81;69.51
17260;BME280;8746;49.230;9.220;2022-09-09T07:51:26;99651.16;;;18.03;68.55
17260;BME280;8746;49.230;9.220;2022-09-09T07:53:56;99654.44;;;17.83;69.67
17260;BME280;8746;49.230;9.220;2022-09-09T07:56:23;99649.72;;;17.86;69.77
17260;BME280;8746;49.230;9.220;2022-09-09T07:58:50;99641.34;;;17.91;69.87
17260;BME280;8746;49.230;9.220;2022-09-09T08:01:24;99639.47;;;18.04;69.00
17260;BME280;8746;49.230;9.220;2022-09-09T08:03:58;99640.47;;;18.03;68.42
17260;BME280;8746;49.230;9.220;2022-09-09T08:06:25;99638.94;;;18.35;68.82
17260;BME280;8746;49.230;9.220;2022-09-09T08:08:52;99650.25;;;18.72;67.58
17260;BME280;8746;49.230;9.220;2022-09-09T08:11:18;99644.91;;;18.84;66.42
17260;BME280;8746;49.230;9.220;2022-09-09T08:13:44;99654.66;;;18.96;65.91
17260;BME280;8746;49.230;9.220;2022-09-09T08:16:20;99664.13;;;18.89;66.20
17260;BME280;8746;49.230;9.220;2022-09-09T08:18:47;99657.06;;;18.88;67.00
17260;BME280;8746;49.230;9.220;2022-09-09T08:21:18;99648.56;;;19.05;65.20
17260;BME280;8746;49.230;9.220;2022-09-09T08:23:45;99649.28;;;19.19;65.75
17260;BME280;8746;49.230;9.220;2022-09-09T08:26:16;99655.97;;;18.90;66.11
17260;BME280;8746;49.230;9.220;2022-09-09T08:28:43;99655.09;;;18.90;67.25
17260;BME280;8746;49.230;9.220;2022-09-09T08:31:14;99656.63;;;18.94;66.99
17260;BME280;8746;49.230;9.220;2022-09-09T08:33:41;99644.44;;;19.13;66.77
17260;BME280;8746;49.230;9.220;2022-09-09T08:36:09;99635.31;;;19.15;65.56
17260;BME280;8746;49.230;9.220;2022-09-09T08:38:35;99634.16;;;19.29;63.63
17260;BME280;8746;49.230;9.220;2022-09-09T08:47:05;99641.19;;;19.53;63.95
17260;BME280;8746;49.230;9.220;2022-09-09T08:50:03;99636.66;;;19.53;63.77
17260;BME280;8746;49.230;9.220;2022-09-09T08:58:13;99632.19;;;19.43;63.37
17260;BME280;8746;49.230;9.220;2022-09-09T09:00:48;99632.78;;;19.58;62.63
17260;BME280;8746;49.230;9.220;2022-09-09T09:06:26;99638.66;;;20.26;61.44
17260;BME280;8746;49.230;9.220;2022-09-09T09:09:02;99632.50;;;20.36;60.19
17260;BME280;8746;49.230;9.220;2022-09-09T09:11:37;99631.72;;;20.45;58.86
17260;BME280;8746;49.230;9.220;2022-09-09T09:14:09;99628.69;;;20.59;58.45
17260;BME280;8746;49.230;9.220;2022-09-09T09:16:59;99625.19;;;21.00;58.52
17260;BME280;8746;49.230;9.220;2022-09-09T09:19:26;99618.94;;;20.89;58.09
17260;BME280;8746;49.230;9.220;2022-09-09T09:24:56;99621.56;;;21.20;56.60
17260;BME280;8746;49.230;9.220;2022-09-09T09:27:35;99614.47;;;21.00;56.22
17260;BME280;8746;49.230;9.220;2022-09-09T09:30:12;99611.06;;;20.97;56.52
17260;BME280;8746;49.230;9.220;2022-09-09T09:32:41;99610.31;;;21.46;56.22
17260;BME280;8746;49.230;9.220;2022-09-09T09:35:12;99603.78;;;22.07;54.25
17260;BME280;8746;49.230;9.220;2022-09-09T09:37:40;99612.25;;;22.13;53.82
17260;BME280;8746;49.230;9.220;2022-09-09T09:42:36;99606.94;;;21.64;53.76
17260;BME280;8746;49.230;9.220;2022-09-09T09:45:17;99617.81;;;20.92;54.31
17260;BME280;8746;49.230;9.220;2022-09-09T09:47:46;99647.13;;;20.31;55.62
17260;BME280;8746;49.230;9.220;2022-09-09T09:50:19;99630.13;;;19.79;53.96
17260;BME280;8746;49.230;9.220;2022-09-09T09:52:54;99632.56;;;19.49;53.44
17260;BME280;8746;49.230;9.220;2022-09-09T09:55:20;99646.47;;;19.20;56.88
17260;BME280;8746;49.230;9.220;2022-09-09T09:57:47;99638.97;;;19.58;56.53
17260;BME280;8746;49.230;9.220;2022-09-09T10:00:14;99640.59;;;19.82;55.81
17260;BME280;8746;49.230;9.220;2022-09-09T10:02:42;99631.47;;;20.06;52.88
17260;BME280;8746;49.230;9.220;2022-09-09T10:05:22;99617.22;;;20.88;52.01
17260;BME280;8746;49.230;9.220;2022-09-09T10:11:09;99625.97;;;20.80;52.42
17260;BME280;8746;49.230;9.220;2022-09-09T10:24:20;99619.06;;;21.58;52.28
17260;BME280;8746;49.230;9.220;2022-09-09T10:29:57;99617.91;;;22.67;48.98
17260;BME280;8746;49.230;9.220;2022-09-09T10:32:38;99620.09;;;22.53;49.83
17260;BME280;8746;49.230;9.220;2022-09-09T10:35:25;99615.28;;;23.13;47.28
17260;BME280;8746;49.230;9.220;2022-09-09T10:51:36;99625.69;;;22.70;46.91
17260;BME280;8746;49.230;9.220;2022-09-09T10:56:44;99617.13;;;22.56;46.58
17260;BME280;8746;49.230;9.220;2022-09-09T10:59:17;99628.00;;;23.20;45.23
17260;BME280;8746;49.230;9.220;2022-09-09T11:04:19;99622.00;;;23.27;44.13
17260;BME280;8746;49.230;9.220;2022-09-09T11:06:50;99618.03;;;23.67;43.50
17260;BME280;8746;49.230;9.220;2022-09-09T11:09:23;99623.41;;;24.03;44.11
17260;BME280;8746;49.230;9.220;2022-09-09T11:11:56;99609.41;;;23.99;42.67
17260;BME280;8746;49.230;9.220;2022-09-09T11:17:10;99613.34;;;23.87;42.57
17260;BME280;8746;49.230;9.220;2022-09-09T11:19:42;99614.22;;;24.14;42.76
17260;BME280;8746;49.230;9.220;2022-09-09T11:22:32;99605.72;;;23.82;43.26
17260;BME280;8746;49.230;9.220;2022-09-09T11:25:10;99604.63;;;22.93;44.17
17260;BME280;8746;49.230;9.220;2022-09-09T11:38:48;99602.78;;;22.18;48.06
17260;BME280;8746;49.230;9.220;2022-09-09T11:41:16;99597.94;;;22.32;46.61
17260;BME280;8746;49.230;9.220;2022-09-09T11:44:10;99596.63;;;21.69;48.21
17260;BME280;8746;49.230;9.220;2022-09-09T11:46:38;99599.84;;;21.92;48.95
17260;BME280;8746;49.230;9.220;2022-09-09T11:49:06;99595.81;;;22.45;47.54
17260;BME280;8746;49.230;9.220;2022-09-09T11:51:48;99585.56;;;23.32;45.29
17260;BME280;8746;49.230;9.220;2022-09-09T11:56:54;99593.03;;;23.57;44.23
17260;BME280;8746;49.230;9.220;2022-09-09T11:59:26;99582.41;;;23.19;45.07
17260;BME280;8746;49.230;9.220;2022-09-09T12:04:31;99577.81;;;23.92;44.13
17260;BME280;8746;49.230;9.220;2022-09-09T12:09:53;99581.00;;;23.15;46.08
17260;BME280;8746;49.230;9.220;2022-09-09T12:12:25;99569.38;;;22.68;46.50
17260;BME280;8746;49.230;9.220;2022-09-09T12:17:54;99568.00;;;24.00;41.89
17260;BME280;8746;49.230;9.220;2022-09-09T12:20:34;99569.06;;;23.90;39.59
17260;BME280;8746;49.230;9.220;2022-09-09T12:26:02;99550.66;;;24.03;40.28
17260;BME280;8746;49.230;9.220;2022-09-09T12:31:15;99558.41;;;24.32;39.68
17260;BME280;8746;49.230;9.220;2022-09-09T12:33:44;99556.66;;;24.23;40.14
17260;BME280;8746;49.230;9.220;2022-09-09T12:36:19;99535.94;;;24.58;39.68
17260;BME280;8746;49.230;9.220;2022-09-09T12:38:46;99541.66;;;24.55;39.42
17260;BME280;8746;49.230;9.220;2022-09-09T12:41:25;99544.84;;;24.51;38.71
17260;BME280;8746;49.230;9.220;2022-09-09T12:43:51;99552.84;;;23.99;39.90
17260;BME280;8746;49.230;9.220;2022-09-09T12:46:40;99554.56;;;23.46;40.44
17260;BME280;8746;49.230;9.220;2022-09-09T12:52:01;99562.03;;;23.16;43.16
17260;BME280;8746;49.230;9.220;2022-09-09T12:54:28;99561.19;;;23.34;41.42
17260;BME280;8746;49.230;9.220;2022-09-09T12:56:54;99565.50;;;23.45;41.91
17260;BME280;8746;49.230;9.220;2022-09-09T12:59:34;99559.28;;;23.44;42.55
17260;BME280;8746;49.230;9.220;2022-09-09T13:02:00;99567.47;;;23.61;41.28
17260;BME280;8746;49.230;9.220;2022-09-09T13:04:26;99559.59;;;23.85;40.98
17260;BME280;8746;49.230;9.220;2022-09-09T13:06:51;99551.56;;;23.67;40.14
17260;BME280;8746;49.230;9.220;2022-09-09T13:09:18;99552.13;;;23.79;40.53
17260;BME280;8746;49.230;9.220;2022-09-09T13:11:52;99548.63;;;23.61;40.18
17260;BME280;8746;49.230;9.220;2022-09-09T13:14:33;99554.59;;;23.28;40.76
17260;BME280;8746;49.230;9.220;2022-09-09T13:17:04;99547.81;;;22.96;40.78
17260;BME280;8746;49.230;9.220;2022-09-09T13:19:35;99553.47;;;23.03;41.93
17260;BME280;8746;49.230;9.220;2022-09-09T13:25:00;99545.47;;;22.93;41.88
17260;BME280;8746;49.230;9.220;2022-09-09T13:27:37;99552.78;;;22.73;42.57
17260;BME280;8746;49.230;9.220;2022-09-09T13:30:25;99562.25;;;22.77;42.42
17260;BME280;8746;49.230;9.220;2022-09-09T13:33:22;99551.94;;;22.72;43.12
17260;BME280;8746;49.230;9.220;2022-09-09T13:35:54;99548.31;;;22.92;42.63
17260;BME280;8746;49.230;9.220;2022-09-09T13:38:21;99555.06;;;22.68;43.67
17260;BME280;8746;49.230;9.220;2022-09-09T13:43:25;99556.47;;;22.44;44.00
17260;BME280;8746;49.230;9.220;2022-09-09T13:48:56;99559.56;;;22.49;43.23
17260;BME280;8746;49.230;9.220;2022-09-09T13:51:33;99548.53;;;22.52;44.79
17260;BME280;8746;49.230;9.220;2022-09-09T13:54:00;99556.09;;;22.29;44.47
17260;BME280;8746;49.230;9.220;2022-09-09T13:56:26;99554.06;;;21.84;46.60
17260;BME280;8746;49.230;9.220;2022-09-09T13:58:51;99548.66;;;21.93;46.17
17260;BME280;8746;49.230;9.220;2022-09-09T14:01:16;99559.28;;;21.95;46.14
17260;BME280;8746;49.230;9.220;2022-09-09T14:03:42;99565.47;;;22.05;47.31
17260;BME280;8746;49.230;9.220;2022-09-09T14:06:09;99557.97;;;22.09;47.44
17260;BME280;8746;49.230;9.220;2022-09-09T14:08:35;99569.63;;;21.70;47.17
17260;BME280;8746;49.230;9.220;2022-09-09T14:11:03;99573.84;;;21.14;48.45
17260;BME280;8746;49.230;9.220;2022-09-09T14:13:28;99570.09;;;20.45;51.21
17260;BME280;8746;49.230;9.220;2022-09-09T14:15:54;99590.22;;;20.39;52.77
17260;BME280;8746;49.230;9.220;2022-09-09T14:18:19;99586.41;;;20.11;57.21
17260;BME280;8746;49.230;9.220;2022-09-09T14:20:45;99581.03;;;20.11;62.11
17260;BME280;8746;49.230;9.220;2022-09-09T14:23:11;99576.16;;;20.47;60.47
17260;BME280;8746;49.230;9.220;2022-09-09T14:25:48;99569.19;;;21.26;58.94
17260;BME280;8746;49.230;9.220;2022-09-09T14:28:14;99581.59;;;20.66;54.90
17260;BME280;8746;49.230;9.220;2022-09-09T14:30:41;99580.06;;;20.43;56.74
17260;BME280;8746;49.230;9.220;2022-09-09T14:33:08;99572.66;;;20.87;54.10
17260;BME280;8746;49.230;9.220;2022-09-09T14:35:35;99574.50;;;20.96;53.79
17260;BME280;8746;49.230;9.220;2022-09-09T14:38:02;99572.56;;;21.18;52.75
17260;BME280;8746;49.230;9.220;2022-09-09T14:40:28;99576.63;;;20.62;53.65
17260;BME280;8746;49.230;9.220;2022-09-09T14:42:53;99577.53;;;20.10;54.67
17260;BME280;8746;49.230;9.220;2022-09-09T14:45:19;99585.97;;;20.06;55.96
17260;BME280;8746;49.230;9.220;2022-09-09T14:47:46;99597.41;;;20.08;55.40
17260;BME280;8746;49.230;9.220;2022-09-09T14:50:11;99589.41;;;19.96;55.91
17260;BME280;8746;49.230;9.220;2022-09-09T14:52:37;99586.03;;;19.94;55.74
17260;BME280;8746;49.230;9.220;2022-09-09T14:55:03;99578.78;;;19.85;56.53
17260;BME280;8746;49.230;9.220;2022-09-09T14:57:29;99579.66;;;19.74;57.08
17260;BME280;8746;49.230;9.220;2022-09-09T14:59:55;99577.13;;;19.73;56.92
17260;BME280;8746;49.230;9.220;2022-09-09T15:02:22;99571.81;;;19.61;57.19
17260;BME280;8746;49.230;9.220;2022-09-09T15:04:47;99567.81;;;19.56;57.59
17260;BME280;8746;49.230;9.220;2022-09-09T15:07:15;99571.25;;;19.46;57.89
17260;BME280;8746;49.230;9.220;2022-09-09T15:09:41;99563.66;;;19.30;58.82
17260;BME280;8746;49.230;9.220;2022-09-09T15:12:07;99571.28;;;19.14;58.44
17260;BME280;8746;49.230;9.220;2022-09-09T15:14:32;99563.84;;;19.17;58.33
17260;BME280;8746;49.230;9.220;2022-09-09T15:16:58;99562.44;;;19.34;58.67
17260;BME280;8746;49.230;9.220;2022-09-09T15:19:23;99566.34;;;19.30;56.65
17260;BME280;8746;49.230;9.220;2022-09-09T15:21:48;99568.41;;;19.38;56.84
17260;BME280;8746;49.230;9.220;2022-09-09T15:24:14;99572.56;;;19.31;57.11
17260;BME280;8746;49.230;9.220;2022-09-09T15:26:41;99558.72;;;19.26;57.58
17260;BME280;8746;49.230;9.220;2022-09-09T15:29:06;99566.47;;;19.29;56.42
17260;BME280;8746;49.230;9.220;2022-09-09T15:31:33;99570.50;;;19.23;57.50
17260;BME280;8746;49.230;9.220;2022-09-09T15:34:01;99565.22;;;19.33;57.39
17260;BME280;8746;49.230;9.220;2022-09-09T15:38:57;99564.16;;;19.35;57.00
17260;BME280;8746;49.230;9.220;2022-09-09T15:41:23;99569.22;;;19.38;56.78
17260;BME280;8746;49.230;9.220;2022-09-09T15:43:50;99573.91;;;19.25;57.74